createdAt,value
2018-11-12T00:01:34.231Z,5.40
2018-11-12T00:04:02.829Z,5.00
2018-11-12T00:06:31.909Z,5.37
2018-11-12T00:09:00.454Z,6.17
2018-11-12T00:11:29.016Z,5.50
2018-11-12T00:13:57.495Z,5.43
2018-11-12T00:16:26.022Z,6.10
2018-11-12T00:18:54.767Z,6.40
2018-11-12T00:21:23.304Z,6.37
2018-11-12T00:23:52.023Z,6.00
2018-11-12T00:26:20.554Z,7.20
2018-11-12T00:28:49.130Z,6.30
2018-11-12T00:31:17.666Z,6.13
2018-11-12T00:33:46.166Z,6.43
2018-11-12T00:36:14.950Z,6.87
2018-11-12T00:38:43.478Z,6.00
2018-11-12T00:41:12.295Z,6.10
2018-11-12T00:43:41.212Z,5.73
2018-11-12T00:46:09.895Z,6.20
2018-11-12T00:48:38.431Z,6.27
2018-11-12T00:51:07.132Z,6.10
2018-11-12T00:53:35.778Z,5.57
2018-11-12T00:56:04.384Z,6.07
2018-11-12T00:58:33.070Z,5.40
2018-11-12T01:01:01.677Z,5.43
2018-11-12T01:03:30.574Z,5.00
2018-11-12T01:05:59.063Z,5.60
2018-11-12T01:08:27.675Z,5.40
2018-11-12T01:10:56.293Z,5.27
2018-11-12T01:13:24.823Z,5.00
2018-11-12T01:15:53.590Z,5.37
2018-11-12T01:18:22.060Z,5.00
2018-11-12T01:20:50.823Z,4.40
2018-11-12T01:23:19.341Z,4.73
2018-11-12T01:25:47.893Z,4.50
2018-11-12T01:30:47.743Z,4.77
2018-11-12T01:33:16.206Z,3.43
2018-11-12T01:35:44.690Z,4.10
2018-11-12T01:38:13.468Z,3.80
2018-11-12T01:40:41.992Z,3.50
2018-11-12T01:43:10.736Z,3.97
2018-11-12T01:45:39.459Z,3.93
2018-11-12T01:48:08.074Z,3.73
2018-11-12T01:50:36.583Z,3.37
2018-11-12T01:53:05.711Z,3.80
2018-11-12T01:55:34.217Z,3.33
2018-11-12T01:58:02.864Z,3.20
2018-11-12T02:00:31.551Z,3.20
2018-11-12T02:03:00.143Z,3.43
2018-11-12T02:05:28.911Z,3.80
2018-11-12T02:07:57.468Z,3.10
2018-11-12T02:10:26.095Z,3.37
2018-11-12T02:12:54.632Z,3.10
2018-11-12T02:15:23.164Z,2.60
2018-11-12T02:17:52.023Z,3.67
2018-11-12T02:20:21.567Z,3.03
2018-11-12T02:22:50.937Z,3.03
2018-11-12T02:25:19.965Z,3.10
2018-11-12T02:27:48.722Z,3.17
2018-11-12T02:30:23.466Z,3.00
2018-11-12T02:32:52.021Z,3.17
2018-11-12T02:35:20.536Z,3.40
2018-11-12T02:37:49.087Z,3.00
2018-11-12T02:40:17.612Z,2.97
2018-11-12T02:42:46.378Z,3.03
2018-11-12T02:45:15.119Z,3.20
2018-11-12T02:47:44.459Z,3.47
2018-11-12T02:50:17.285Z,3.40
2018-11-12T02:52:45.834Z,2.80
2018-11-12T02:55:15.363Z,3.20
2018-11-12T02:57:45.039Z,2.90
2018-11-12T03:00:17.873Z,2.83
2018-11-12T03:02:46.528Z,3.27
2018-11-12T03:05:15.231Z,2.80
2018-11-12T03:07:44.006Z,2.40
2018-11-12T03:10:15.987Z,3.10
2018-11-12T03:12:44.514Z,3.43
2018-11-12T03:15:14.090Z,3.17
2018-11-12T03:17:43.379Z,3.10
2018-11-12T03:20:13.778Z,2.60
2018-11-12T03:22:42.258Z,2.63
2018-11-12T03:25:12.660Z,2.80
2018-11-12T03:27:42.126Z,3.50
2018-11-12T03:30:12.680Z,2.63
2018-11-12T03:32:41.407Z,3.40
2018-11-12T03:35:11.373Z,2.50
2018-11-12T03:37:40.743Z,3.53
2018-11-12T03:40:11.508Z,2.50
2018-11-12T03:42:40.029Z,3.13
2018-11-12T03:45:11.113Z,3.33
2018-11-12T03:47:40.063Z,2.80
2018-11-12T03:50:11.098Z,2.63
2018-11-12T03:52:39.903Z,3.03
2018-11-12T03:55:09.475Z,3.13
2018-11-12T03:57:38.039Z,3.10
2018-11-12T04:00:12.657Z,2.50
2018-11-12T04:02:41.588Z,2.50
2018-11-12T04:05:10.499Z,2.87
2018-11-12T04:07:40.050Z,3.00
2018-11-12T04:10:10.698Z,2.70
2018-11-12T04:12:39.743Z,2.73
2018-11-12T04:15:10.575Z,2.63
2018-11-12T04:17:39.608Z,2.47
2018-11-12T04:20:09.938Z,2.77
2018-11-12T04:22:39.534Z,2.87
2018-11-12T04:25:09.166Z,3.00
2018-11-12T04:27:38.178Z,2.50
2018-11-12T04:30:10.156Z,2.83
2018-11-12T04:32:38.678Z,2.83
2018-11-12T04:35:08.062Z,3.30
2018-11-12T04:37:37.176Z,2.83
2018-11-12T04:40:06.875Z,3.03
2018-11-12T04:42:35.623Z,2.63
2018-11-12T04:45:04.414Z,2.80
2018-11-12T04:47:33.407Z,3.47
2018-11-12T04:50:01.947Z,2.63
2018-11-12T04:52:30.583Z,3.00
2018-11-12T04:54:59.131Z,2.77
2018-11-12T04:57:27.723Z,2.53
2018-11-12T04:59:56.372Z,2.80
2018-11-12T05:02:25.990Z,2.43
2018-11-12T05:04:54.966Z,2.80
2018-11-12T05:07:23.590Z,2.77
2018-11-12T05:09:52.475Z,2.77
2018-11-12T05:12:21.007Z,2.53
2018-11-12T05:14:49.648Z,3.27
2018-11-12T05:17:18.117Z,2.67
2018-11-12T05:19:46.699Z,3.23
2018-11-12T05:22:15.171Z,3.20
2018-11-12T05:24:43.859Z,3.40
2018-11-12T05:27:12.724Z,3.53
2018-11-12T05:29:41.221Z,3.50
2018-11-12T05:32:10.032Z,2.90
2018-11-12T05:34:38.668Z,3.50
2018-11-12T05:37:07.442Z,3.27
2018-11-12T05:39:35.990Z,3.47
2018-11-12T05:42:04.559Z,3.30
2018-11-12T05:44:33.465Z,3.40
2018-11-12T05:47:01.944Z,2.87
2018-11-12T05:49:30.744Z,3.30
2018-11-12T05:51:59.249Z,3.37
2018-11-12T05:54:27.796Z,3.37
2018-11-12T05:56:57.174Z,2.83
2018-11-12T05:59:25.694Z,3.00
2018-11-12T06:01:54.299Z,3.23
2018-11-12T06:04:22.955Z,3.27
2018-11-12T06:06:51.856Z,2.83
2018-11-12T06:09:20.379Z,2.53
2018-11-12T06:11:49.210Z,3.47
2018-11-12T06:14:17.785Z,3.43
2018-11-12T06:16:46.386Z,2.90
2018-11-12T06:19:14.939Z,2.90
2018-11-12T06:21:43.394Z,2.77
2018-11-12T06:24:12.323Z,2.77
2018-11-12T06:26:41.046Z,3.17
2018-11-12T06:29:10.018Z,3.20
2018-11-12T06:31:38.956Z,3.50
2018-11-12T06:34:07.567Z,3.67
2018-11-12T06:36:36.220Z,4.53
2018-11-12T06:39:07.711Z,3.97
2018-11-12T06:41:36.296Z,4.67
2018-11-12T06:44:05.606Z,4.70
2018-11-12T06:46:34.142Z,4.97
2018-11-12T06:49:02.757Z,5.40
2018-11-12T06:51:31.374Z,5.17
2018-11-12T06:53:59.843Z,5.13
2018-11-12T06:56:28.686Z,5.07
2018-11-12T06:58:57.191Z,5.07
2018-11-12T07:01:25.954Z,5.70
2018-11-12T07:03:54.623Z,6.10
2018-11-12T07:06:23.184Z,5.40
2018-11-12T07:08:52.097Z,5.67
2018-11-12T07:11:20.900Z,5.70
2018-11-12T07:13:49.853Z,5.77
2018-11-12T07:16:18.779Z,5.63
2018-11-12T07:18:47.816Z,6.30
2018-11-12T07:21:16.338Z,5.97
2018-11-12T07:23:45.062Z,6.60
2018-11-12T07:26:13.567Z,6.80
2018-11-12T07:28:42.239Z,6.27
2018-11-12T07:31:11.180Z,6.20
2018-11-12T07:33:40.130Z,6.87
2018-11-12T07:36:09.147Z,9.85
2018-11-12T07:38:37.903Z,6.40
2018-11-12T07:41:06.884Z,5.80
2018-11-12T07:43:35.470Z,5.30
2018-11-12T07:46:04.659Z,5.73
2018-11-12T07:48:33.364Z,4.83
2018-11-12T07:51:02.014Z,5.60
2018-11-12T07:53:30.789Z,5.57
2018-11-12T07:55:59.319Z,5.80
2018-11-12T07:58:27.993Z,5.67
2018-11-12T08:00:56.644Z,5.77
2018-11-12T08:03:25.643Z,5.57
2018-11-12T08:05:54.111Z,6.10
2018-11-12T08:08:22.659Z,6.07
2018-11-12T08:10:51.174Z,5.73
2018-11-12T08:13:19.719Z,6.23
2018-11-12T08:15:48.787Z,5.53
2018-11-12T08:18:17.903Z,6.77
2018-11-12T08:20:46.951Z,6.43
2018-11-12T08:23:15.547Z,6.63
2018-11-12T08:25:44.684Z,6.37
2018-11-12T08:28:13.300Z,6.83
2018-11-12T08:30:42.311Z,6.77
2018-11-12T08:33:12.905Z,7.33
2018-11-12T08:35:42.030Z,7.17
2018-11-12T08:38:11.386Z,7.47
2018-11-12T08:40:40.748Z,6.27
2018-11-12T08:43:09.943Z,7.03
2018-11-12T08:45:39.162Z,6.73
2018-11-12T08:48:07.931Z,7.63
2018-11-12T08:50:38.354Z,7.13
2018-11-12T08:53:07.046Z,7.07
2018-11-12T08:55:36.236Z,6.97
2018-11-12T08:58:08.099Z,7.10
2018-11-12T09:00:37.312Z,6.50
2018-11-12T09:03:06.162Z,6.97
2018-11-12T09:05:35.394Z,6.20
2018-11-12T09:08:04.927Z,7.53
2018-11-12T09:10:34.766Z,7.37
2018-11-12T09:13:03.370Z,8.53
2018-11-12T09:15:32.220Z,6.90
2018-11-12T09:18:00.859Z,6.70
2018-11-12T09:20:29.785Z,7.30
2018-11-12T09:22:58.409Z,7.30
2018-11-12T09:25:27.942Z,7.07
2018-11-12T09:27:56.654Z,7.20
2018-11-12T09:30:26.254Z,7.57
2018-11-12T09:32:55.197Z,7.37
2018-11-12T09:35:25.859Z,6.60
2018-11-12T09:37:55.317Z,7.20
2018-11-12T09:40:25.495Z,6.00
2018-11-12T09:42:54.344Z,6.00
2018-11-12T09:45:22.866Z,5.90
2018-11-12T09:47:51.768Z,5.73
2018-11-12T09:50:21.490Z,5.33
2018-11-12T09:52:51.354Z,5.63
2018-11-12T09:55:20.783Z,5.60
2018-11-12T09:57:52.378Z,6.33
2018-11-12T10:00:21.561Z,6.47
2018-11-12T10:02:51.622Z,6.53
2018-11-12T10:05:20.888Z,6.10
2018-11-12T10:07:53.154Z,6.60
2018-11-12T10:10:47.626Z,6.07
2018-11-12T10:13:19.511Z,5.50
2018-11-12T10:15:49.463Z,6.23
2018-11-12T10:18:15.063Z,5.83
2018-11-12T10:20:43.620Z,6.80
2018-11-12T10:23:12.227Z,4.87
2018-11-12T10:25:40.736Z,5.10
2018-11-12T10:28:09.326Z,5.33
2018-11-12T10:30:37.914Z,5.20
2018-11-12T10:33:06.990Z,5.50
2018-11-12T10:35:35.643Z,4.97
2018-11-12T10:38:04.680Z,4.80
2018-11-12T10:40:33.164Z,4.90
2018-11-12T10:43:01.752Z,4.50
2018-11-12T10:45:30.311Z,4.50
2018-11-12T10:47:58.902Z,4.50
2018-11-12T10:50:27.591Z,5.10
2018-11-12T10:52:56.115Z,4.27
2018-11-12T10:55:25.934Z,4.93
2018-11-12T10:57:54.472Z,4.60
2018-11-12T11:00:32.538Z,4.60
2018-11-12T11:03:07.436Z,4.20
2018-11-12T11:05:37.359Z,4.40
2018-11-12T11:08:06.089Z,3.90
2018-11-12T11:10:34.896Z,4.10
2018-11-12T11:13:04.251Z,4.07
2018-11-12T11:15:33.698Z,3.87
2018-11-12T11:18:02.210Z,4.03
2018-11-12T11:20:31.327Z,4.70
2018-11-12T11:23:00.127Z,3.97
2018-11-12T11:25:28.819Z,4.40
2018-11-12T11:27:57.389Z,3.97
2018-11-12T11:30:25.868Z,4.27
2018-11-12T11:32:54.680Z,4.53
2018-11-12T11:35:23.416Z,4.40
2018-11-12T11:37:52.160Z,4.10
2018-11-12T11:40:23.061Z,4.87
2018-11-12T11:42:52.058Z,5.00
2018-11-12T11:45:21.154Z,4.80
2018-11-12T11:47:50.897Z,5.00
2018-11-12T11:50:20.884Z,3.93
2018-11-12T11:52:49.507Z,4.80
2018-11-12T11:55:19.478Z,4.47
2018-11-12T11:57:48.456Z,4.23
2018-11-12T12:00:23.162Z,4.30
2018-11-12T12:02:52.869Z,4.73
2018-11-12T12:05:22.411Z,4.23
2018-11-12T12:07:51.562Z,4.27
2018-11-12T12:10:20.260Z,4.23
2018-11-12T12:12:49.801Z,4.27
2018-11-12T12:15:19.606Z,4.27
2018-11-12T12:17:48.220Z,4.20
2018-11-12T12:20:18.255Z,4.37
2018-11-12T12:22:46.886Z,4.00
2018-11-12T12:25:16.562Z,4.00
2018-11-12T12:27:45.642Z,4.17
2018-11-12T12:30:17.616Z,3.93
2018-11-12T12:32:47.015Z,3.77
2018-11-12T12:35:15.684Z,3.43
2018-11-12T12:37:45.083Z,3.67
2018-11-12T12:40:15.060Z,3.50
2018-11-12T12:42:43.753Z,3.13
2018-11-12T12:45:13.910Z,3.20
2018-11-12T12:47:42.727Z,2.63
2018-11-12T12:50:12.870Z,3.10
2018-11-12T12:52:41.399Z,2.80
2018-11-12T12:55:11.034Z,3.20
2018-11-12T12:57:40.088Z,2.80
2018-11-12T13:00:19.939Z,2.90
2018-11-12T13:02:48.871Z,2.67
2018-11-12T13:05:17.383Z,3.07
2018-11-12T13:07:46.070Z,3.37
2018-11-12T13:10:15.794Z,3.03
2018-11-12T13:12:44.258Z,2.73
2018-11-12T13:15:15.098Z,2.87
2018-11-12T13:17:44.458Z,3.33
2018-11-12T13:20:14.347Z,2.67
2018-11-12T13:22:44.019Z,2.73
2018-11-12T13:25:12.501Z,2.50
2018-11-12T13:27:41.323Z,2.43
2018-11-12T13:30:13.186Z,2.30
2018-11-12T13:32:42.459Z,2.50
2018-11-12T13:35:13.406Z,2.10
2018-11-12T13:37:42.515Z,2.10
2018-11-12T13:40:17.572Z,2.03
2018-11-12T13:42:47.347Z,2.23
2018-11-12T13:45:16.166Z,2.00
2018-11-12T13:47:45.103Z,2.37
2018-11-12T13:50:15.237Z,2.60
2018-11-12T13:52:43.950Z,2.63
2018-11-12T13:55:13.551Z,2.30
2018-11-12T13:57:42.043Z,2.17
2018-11-12T14:00:12.854Z,2.47
2018-11-12T14:02:42.035Z,2.30
2018-11-12T14:05:12.848Z,2.10
2018-11-12T14:07:41.892Z,2.93
2018-11-12T14:10:12.119Z,2.17
2018-11-12T14:12:41.164Z,2.53
2018-11-12T14:15:12.061Z,2.60
2018-11-12T14:17:41.034Z,2.30
2018-11-12T14:20:09.850Z,2.20
2018-11-12T14:22:38.882Z,2.43
2018-11-12T14:25:08.997Z,2.30
2018-11-12T14:27:37.535Z,2.27
2018-11-12T14:30:07.942Z,2.43
2018-11-12T14:32:36.526Z,2.17
2018-11-12T14:35:06.443Z,1.90
2018-11-12T14:37:35.027Z,2.30
2018-11-12T14:40:03.704Z,2.23
2018-11-12T14:42:32.184Z,2.10
2018-11-12T14:45:00.850Z,2.33
2018-11-12T14:47:29.542Z,2.30
2018-11-12T14:49:58.002Z,2.37
2018-11-12T14:52:27.099Z,2.50
2018-11-12T14:54:55.651Z,2.40
2018-11-12T14:57:24.416Z,2.37
2018-11-12T14:59:52.930Z,2.50
2018-11-12T15:02:21.494Z,2.23
2018-11-12T15:04:50.194Z,2.53
2018-11-12T15:07:18.661Z,2.30
2018-11-12T15:09:47.431Z,2.60
2018-11-12T15:12:15.911Z,2.50
2018-11-12T15:14:47.386Z,3.10
2018-11-12T15:17:15.967Z,2.63
2018-11-12T15:19:44.815Z,2.60
2018-11-12T15:22:13.370Z,2.43
2018-11-12T15:24:42.279Z,2.37
2018-11-12T15:27:10.746Z,2.97
2018-11-12T15:29:39.395Z,2.63
2018-11-12T15:32:08.270Z,2.57
2018-11-12T15:34:36.880Z,2.80
2018-11-12T15:37:05.767Z,3.43
2018-11-12T15:39:34.199Z,2.97
2018-11-12T15:42:03.211Z,2.77
2018-11-12T15:44:31.687Z,3.30
2018-11-12T15:47:00.446Z,2.90
2018-11-12T15:49:28.990Z,2.80
2018-11-12T15:51:57.536Z,2.77
2018-11-12T15:54:26.192Z,3.10
2018-11-12T15:56:54.718Z,3.23
2018-11-12T15:59:23.752Z,2.70
2018-11-12T16:01:52.386Z,3.43
2018-11-12T16:04:21.295Z,2.67
2018-11-12T16:06:49.949Z,3.30
2018-11-12T16:09:19.348Z,3.37
2018-11-12T16:11:47.950Z,3.33
2018-11-12T16:14:16.521Z,3.33
2018-11-12T16:16:45.222Z,3.67
2018-11-12T16:19:13.741Z,3.50
2018-11-12T16:21:42.563Z,3.60
2018-11-12T16:24:11.096Z,4.10
2018-11-12T16:26:39.898Z,3.93
2018-11-12T16:29:08.679Z,3.10
2018-11-12T16:31:37.303Z,3.73
2018-11-12T16:34:06.158Z,5.10
2018-11-12T16:36:34.689Z,4.40
2018-11-12T16:39:04.267Z,3.57
2018-11-12T16:41:32.803Z,4.60
2018-11-12T16:44:02.036Z,4.47
2018-11-12T16:46:30.518Z,4.20
2018-11-12T16:48:59.320Z,5.20
2018-11-12T16:51:27.852Z,5.10
2018-11-12T16:53:56.419Z,4.30
2018-11-12T16:56:25.047Z,5.23
2018-11-12T16:58:53.618Z,5.77
2018-11-12T17:01:22.618Z,5.20
2018-11-12T17:03:51.104Z,4.47
2018-11-12T17:06:19.873Z,5.47
2018-11-12T17:08:48.409Z,5.50
2018-11-12T17:11:17.016Z,6.20
2018-11-12T17:13:45.639Z,6.30
2018-11-12T17:16:14.162Z,5.37
2018-11-12T17:18:42.918Z,6.43
2018-11-12T17:21:11.402Z,6.60
2018-11-12T17:23:40.171Z,5.67
2018-11-12T17:26:08.659Z,6.17
2018-11-12T17:28:37.345Z,5.97
2018-11-12T17:31:06.319Z,6.17
2018-11-12T17:33:35.474Z,6.47
2018-11-12T17:36:04.076Z,6.43
2018-11-12T17:38:32.603Z,6.80
2018-11-12T17:41:01.254Z,6.33
2018-11-12T17:43:29.780Z,5.87
2018-11-12T17:45:58.592Z,6.27
2018-11-12T17:48:27.133Z,6.80
2018-11-12T17:50:55.675Z,6.77
2018-11-12T17:53:24.210Z,7.07
2018-11-12T17:55:52.694Z,6.73
2018-11-12T17:58:21.609Z,6.87
2018-11-12T18:00:50.124Z,6.17
2018-11-12T18:03:19.039Z,6.93
2018-11-12T18:05:47.547Z,6.70
2018-11-12T18:08:16.622Z,7.47
2018-11-12T18:10:45.091Z,6.97
2018-11-12T18:13:13.713Z,8.30
2018-11-12T18:15:42.451Z,7.00
2018-11-12T18:18:10.942Z,7.63
2018-11-12T18:20:39.964Z,7.27
2018-11-12T18:23:08.556Z,8.00
2018-11-12T18:25:49.892Z,7.00
2018-11-12T18:28:27.401Z,7.10
2018-11-12T18:31:02.690Z,8.00
2018-11-12T18:33:32.435Z,7.43
2018-11-12T18:36:02.281Z,6.93
2018-11-12T18:38:33.372Z,8.27
2018-11-12T18:41:08.360Z,8.03
2018-11-12T18:43:53.401Z,7.47
2018-11-12T18:46:22.567Z,7.93
2018-11-12T18:48:51.385Z,7.27
2018-11-12T18:51:19.957Z,8.13
2018-11-12T18:53:48.916Z,12.30
2018-11-12T18:56:17.714Z,10.47
2018-11-12T18:58:46.497Z,10.33
2018-11-12T19:01:15.118Z,12.23
2018-11-12T19:03:43.662Z,9.93
2018-11-12T19:06:12.191Z,9.03
2018-11-12T19:08:40.702Z,8.27
2018-11-12T19:11:10.431Z,8.13
2018-11-12T19:13:40.097Z,8.30
2018-11-12T19:16:09.184Z,8.90
2018-11-12T19:18:37.702Z,7.27
2018-11-12T19:21:06.655Z,8.33
2018-11-12T19:23:35.233Z,7.43
2018-11-12T19:26:05.607Z,7.67
2018-11-12T19:28:34.185Z,8.30
2018-11-12T19:31:03.348Z,7.50
2018-11-12T19:33:31.964Z,7.43
2018-11-12T19:36:00.580Z,7.97
2018-11-12T19:38:29.243Z,8.90
2018-11-12T19:40:57.832Z,8.00
2018-11-12T19:43:26.733Z,8.90
2018-11-12T19:45:55.243Z,7.20
2018-11-12T19:48:23.957Z,8.40
2018-11-12T19:50:52.462Z,8.90
2018-11-12T19:53:21.023Z,7.53
2018-11-12T19:55:49.502Z,8.57
2018-11-12T19:58:18.007Z,7.20
2018-11-12T20:00:47.151Z,6.80
2018-11-12T20:03:15.775Z,6.97
2018-11-12T20:05:44.778Z,8.20
2018-11-12T20:08:13.362Z,7.10
2018-11-12T20:10:42.334Z,8.17
2018-11-12T20:13:10.842Z,7.73
2018-11-12T20:15:39.599Z,8.23
2018-11-12T20:18:08.201Z,7.47
2018-11-12T20:20:36.715Z,8.53
2018-11-12T20:23:05.623Z,7.90
2018-11-12T20:25:34.104Z,7.73
2018-11-12T20:28:02.834Z,7.63
2018-11-12T20:30:34.398Z,7.13
2018-11-12T20:33:03.328Z,8.23
2018-11-12T20:35:31.801Z,7.17
2018-11-12T20:38:00.674Z,7.83
2018-11-12T20:40:29.185Z,6.43
2018-11-12T20:42:57.778Z,7.23
2018-11-12T20:45:26.860Z,8.53
2018-11-12T20:47:56.579Z,7.53
2018-11-12T20:50:25.115Z,8.07
2018-11-12T20:52:53.649Z,7.93
2018-11-12T20:55:22.486Z,7.87
2018-11-12T20:57:50.950Z,7.30
2018-11-12T21:00:27.012Z,7.77
2018-11-12T21:02:56.187Z,7.70
2018-11-12T21:05:27.051Z,6.70
2018-11-12T21:07:55.907Z,7.53
2018-11-12T21:10:24.486Z,6.77
2018-11-12T21:12:53.590Z,7.30
2018-11-12T21:15:23.419Z,7.87
2018-11-12T21:17:52.596Z,7.23
2018-11-12T21:20:23.384Z,7.13
2018-11-12T21:22:52.347Z,6.77
2018-11-12T21:25:22.132Z,7.57
2018-11-12T21:27:51.212Z,7.17
2018-11-12T21:30:21.599Z,6.80
2018-11-12T21:32:50.622Z,6.73
2018-11-12T21:35:19.208Z,7.20
2018-11-12T21:37:48.482Z,7.50
2018-11-12T21:40:18.370Z,7.10
2018-11-12T21:42:47.072Z,7.43
2018-11-12T21:45:17.034Z,6.77
2018-11-12T21:47:45.645Z,7.60
2018-11-12T21:50:19.851Z,6.60
2018-11-12T21:52:48.399Z,6.27
2018-11-12T21:55:16.931Z,7.50
2018-11-12T21:57:46.338Z,7.83
2018-11-12T22:00:20.947Z,6.73
2018-11-12T22:02:51.004Z,7.47
2018-11-12T22:05:19.625Z,6.97
2018-11-12T22:07:48.270Z,8.00
2018-11-12T22:10:17.617Z,7.20
2018-11-12T22:12:47.446Z,6.77
2018-11-12T22:15:16.106Z,7.07
2018-11-12T22:17:44.594Z,6.47
2018-11-12T22:20:14.235Z,6.97
2018-11-12T22:22:43.491Z,7.53
2018-11-12T22:25:19.595Z,6.93
2018-11-12T22:27:48.794Z,7.10
2018-11-12T22:30:19.829Z,7.13
2018-11-12T22:32:49.669Z,6.93
2018-11-12T22:35:18.311Z,6.70
2018-11-12T22:37:47.278Z,6.37
2018-11-12T22:40:16.631Z,6.23
2018-11-12T22:42:45.980Z,6.53
2018-11-12T22:45:20.979Z,5.97
2018-11-12T22:47:50.040Z,6.57
2018-11-12T22:50:18.595Z,5.93
2018-11-12T22:52:47.425Z,5.10
2018-11-12T22:55:17.025Z,6.23
2018-11-12T22:57:45.839Z,6.30
2018-11-12T23:00:24.688Z,6.63
2018-11-12T23:02:53.483Z,7.17
2018-11-12T23:05:22.515Z,5.77
2018-11-12T23:07:51.558Z,6.27
2018-11-12T23:10:20.651Z,5.57
2018-11-12T23:12:49.143Z,5.53
2018-11-12T23:15:18.613Z,6.20
2018-11-12T23:17:47.133Z,7.00
2018-11-12T23:20:21.945Z,5.70
2018-11-12T23:22:50.970Z,5.43
2018-11-12T23:25:19.650Z,6.47
2018-11-12T23:27:48.911Z,6.70
2018-11-12T23:30:20.156Z,5.90
2018-11-12T23:32:48.718Z,5.50
2018-11-12T23:35:19.737Z,6.27
2018-11-12T23:37:48.750Z,7.47
2018-11-12T23:40:17.317Z,6.23
2018-11-12T23:42:46.518Z,6.97
2018-11-12T23:45:15.074Z,6.20
2018-11-12T23:47:43.550Z,7.33
2018-11-12T23:50:15.543Z,6.67
2018-11-12T23:52:44.929Z,6.67
2018-11-12T23:55:13.719Z,6.97
2018-11-12T23:57:42.175Z,6.07
